sensor_id;sensor_type;location;lat;lon;timestamp;pressure;altitude;pressure_sealevel;temperature;humidity
19114;BME280;9689;51.052;13.772;2023-06-14T00:03:24;100367.50;;;13.91;60.22
19114;BME280;9689;51.052;13.772;2023-06-14T00:08:27;100360.19;;;13.74;61.40
19114;BME280;9689;51.052;13.772;2023-06-14T00:13:27;100363.28;;;13.58;61.46
19114;BME280;9689;51.052;13.772;2023-06-14T00:18:28;100361.19;;;13.42;61.82
19114;BME280;9689;51.052;13.772;2023-06-14T00:23:31;100356.63;;;13.48;61.57
19114;BME280;9689;51.052;13.772;2023-06-14T00:28:32;100359.53;;;13.39;61.91
19114;BME280;9689;51.052;13.772;2023-06-14T00:33:33;100342.38;;;13.29;62.34
19114;BME280;9689;51.052;13.772;2023-06-14T00:38:35;100344.53;;;13.15;62.71
19114;BME280;9689;51.052;13.772;2023-06-14T00:43:35;100350.03;;;13.06;63.15
19114;BME280;9689;51.052;13.772;2023-06-14T00:48:37;100347.28;;;13.10;63.67
19114;BME280;9689;51.052;13.772;2023-06-14T00:53:40;100352.06;;;12.96;64.54
19114;BME280;9689;51.052;13.772;2023-06-14T00:58:45;100349.84;;;12.82;64.69
19114;BME280;9689;51.052;13.772;2023-06-14T01:03:46;100351.81;;;12.74;65.12
19114;BME280;9689;51.052;13.772;2023-06-14T01:08:51;100351.91;;;12.71;65.52
19114;BME280;9689;51.052;13.772;2023-06-14T01:13:59;100344.59;;;12.82;65.86
19114;BME280;9689;51.052;13.772;2023-06-14T01:19:02;100351.00;;;12.72;66.52
19114;BME280;9689;51.052;13.772;2023-06-14T01:24:05;100347.16;;;12.54;66.42
19114;BME280;9689;51.052;13.772;2023-06-14T01:29:06;100347.09;;;12.87;65.71
19114;BME280;9689;51.052;13.772;2023-06-14T01:34:10;100345.63;;;12.78;66.24
19114;BME280;9689;51.052;13.772;2023-06-14T01:39:14;100342.53;;;12.93;65.86
19114;BME280;9689;51.052;13.772;2023-06-14T01:44:16;100339.44;;;12.81;66.34
19114;BME280;9689;51.052;13.772;2023-06-14T01:49:17;100335.91;;;12.82;67.09
19114;BME280;9689;51.052;13.772;2023-06-14T01:54:20;100340.59;;;12.70;66.63
19114;BME280;9689;51.052;13.772;2023-06-14T01:59:22;100346.84;;;12.65;66.83
19114;BME280;9689;51.052;13.772;2023-06-14T02:04:22;100344.84;;;12.42;67.88
19114;BME280;9689;51.052;13.772;2023-06-14T02:09:24;100363.38;;;12.34;68.30
19114;BME280;9689;51.052;13.772;2023-06-14T02:14:26;100354.44;;;12.43;67.78
19114;BME280;9689;51.052;13.772;2023-06-14T02:19:27;100364.94;;;12.40;68.46
19114;BME280;9689;51.052;13.772;2023-06-14T02:24:30;100358.00;;;12.39;68.45
19114;BME280;9689;51.052;13.772;2023-06-14T02:29:30;100356.88;;;12.15;69.55
19114;BME280;9689;51.052;13.772;2023-06-14T02:34:31;100369.28;;;12.07;69.80
19114;BME280;9689;51.052;13.772;2023-06-14T02:39:33;100367.59;;;12.04;69.67
19114;BME280;9689;51.052;13.772;2023-06-14T02:44:35;100372.09;;;11.99;70.10
19114;BME280;9689;51.052;13.772;2023-06-14T02:49:36;100373.81;;;11.99;69.64
19114;BME280;9689;51.052;13.772;2023-06-14T02:54:38;100372.09;;;11.99;68.51
19114;BME280;9689;51.052;13.772;2023-06-14T02:59:40;100374.28;;;11.82;70.54
19114;BME280;9689;51.052;13.772;2023-06-14T03:04:40;100377.94;;;11.72;71.13
19114;BME280;9689;51.052;13.772;2023-06-14T03:09:48;100386.09;;;11.58;71.30
19114;BME280;9689;51.052;13.772;2023-06-14T03:14:50;100381.75;;;11.58;71.50
19114;BME280;9689;51.052;13.772;2023-06-14T03:19:54;100391.31;;;11.58;71.00
19114;BME280;9689;51.052;13.772;2023-06-14T03:24:56;100384.31;;;11.60;71.66
19114;BME280;9689;51.052;13.772;2023-06-14T03:30:00;100384.44;;;11.55;72.00
19114;BME280;9689;51.052;13.772;2023-06-14T03:35:03;100393.72;;;11.67;71.64
19114;BME280;9689;51.052;13.772;2023-06-14T03:40:07;100404.94;;;11.71;72.02
19114;BME280;9689;51.052;13.772;2023-06-14T03:45:13;100412.72;;;11.74;71.17
19114;BME280;9689;51.052;13.772;2023-06-14T03:50:14;100409.63;;;11.95;71.52
19114;BME280;9689;51.052;13.772;2023-06-14T03:55:16;100422.03;;;11.85;70.86
19114;BME280;9689;51.052;13.772;2023-06-14T04:00:20;100423.88;;;11.80;71.31
19114;BME280;9689;51.052;13.772;2023-06-14T04:05:21;100430.22;;;12.07;70.96
19114;BME280;9689;51.052;13.772;2023-06-14T04:10:28;100438.22;;;12.01;70.70
19114;BME280;9689;51.052;13.772;2023-06-14T04:15:29;100439.13;;;12.00;70.10
19114;BME280;9689;51.052;13.772;2023-06-14T04:20:31;100444.16;;;12.06;70.68
19114;BME280;9689;51.052;13.772;2023-06-14T04:25:34;100436.94;;;12.18;70.52
19114;BME280;9689;51.052;13.772;2023-06-14T04:30:35;100433.25;;;12.26;70.23
19114;BME280;9689;51.052;13.772;2023-06-14T04:35:39;100434.78;;;12.33;70.54
19114;BME280;9689;51.052;13.772;2023-06-14T04:40:43;100439.91;;;12.38;70.09
19114;BME280;9689;51.052;13.772;2023-06-14T04:45:49;100451.28;;;12.37;68.95
19114;BME280;9689;51.052;13.772;2023-06-14T04:50:51;100459.16;;;11.98;70.43
19114;BME280;9689;51.052;13.772;2023-06-14T04:55:54;100471.59;;;12.24;69.69
19114;BME280;9689;51.052;13.772;2023-06-14T05:00:55;100463.59;;;12.32;69.34
19114;BME280;9689;51.052;13.772;2023-06-14T05:05:58;100470.16;;;12.48;68.57
19114;BME280;9689;51.052;13.772;2023-06-14T05:11:01;100471.81;;;12.52;67.56
19114;BME280;9689;51.052;13.772;2023-06-14T05:16:02;100480.75;;;12.43;68.23
19114;BME280;9689;51.052;13.772;2023-06-14T05:21:03;100474.66;;;12.43;68.41
19114;BME280;9689;51.052;13.772;2023-06-14T05:26:06;100483.78;;;12.61;68.14
19114;BME280;9689;51.052;13.772;2023-06-14T05:31:07;100481.47;;;12.83;68.01
19114;BME280;9689;51.052;13.772;2023-06-14T05:36:07;100466.50;;;13.19;66.41
19114;BME280;9689;51.052;13.772;2023-06-14T05:41:09;100474.97;;;13.60;66.15
19114;BME280;9689;51.052;13.772;2023-06-14T05:46:10;100470.88;;;14.08;64.06
19114;BME280;9689;51.052;13.772;2023-06-14T05:51:11;100483.28;;;14.30;63.64
19114;BME280;9689;51.052;13.772;2023-06-14T05:56:13;100485.06;;;14.56;61.68
19114;BME280;9689;51.052;13.772;2023-06-14T06:01:14;100475.03;;;14.40;61.64
19114;BME280;9689;51.052;13.772;2023-06-14T06:06:15;100482.31;;;14.32;62.42
19114;BME280;9689;51.052;13.772;2023-06-14T06:11:17;100473.34;;;14.39;62.65
19114;BME280;9689;51.052;13.772;2023-06-14T06:16:17;100484.31;;;14.52;62.26
19114;BME280;9689;51.052;13.772;2023-06-14T06:21:18;100499.84;;;14.30;62.64
19114;BME280;9689;51.052;13.772;2023-06-14T06:26:21;100490.84;;;14.39;62.73
19114;BME280;9689;51.052;13.772;2023-06-14T06:31:22;100505.00;;;14.61;62.28
19114;BME280;9689;51.052;13.772;2023-06-14T06:36:23;100506.94;;;14.81;61.66
19114;BME280;9689;51.052;13.772;2023-06-14T06:41:25;100505.06;;;14.85;61.03
19114;BME280;9689;51.052;13.772;2023-06-14T06:46:26;100506.50;;;14.93;61.14
19114;BME280;9689;51.052;13.772;2023-06-14T06:51:27;100510.22;;;15.13;60.75
19114;BME280;9689;51.052;13.772;2023-06-14T06:56:29;100506.22;;;15.26;60.79
19114;BME280;9689;51.052;13.772;2023-06-14T07:01:31;100497.19;;;15.10;60.64
19114;BME280;9689;51.052;13.772;2023-06-14T07:06:33;100489.41;;;15.32;60.06
19114;BME280;9689;51.052;13.772;2023-06-14T07:11:35;100491.94;;;15.58;59.46
19114;BME280;9689;51.052;13.772;2023-06-14T07:16:36;100494.38;;;15.86;58.14
19114;BME280;9689;51.052;13.772;2023-06-14T07:21:37;100495.75;;;16.18;57.22
19114;BME280;9689;51.052;13.772;2023-06-14T07:26:39;100483.72;;;16.55;54.21
19114;BME280;9689;51.052;13.772;2023-06-14T07:31:40;100496.28;;;16.90;52.21
19114;BME280;9689;51.052;13.772;2023-06-14T07:36:40;100492.00;;;17.08;51.01
19114;BME280;9689;51.052;13.772;2023-06-14T07:41:45;100485.28;;;17.21;48.54
19114;BME280;9689;51.052;13.772;2023-06-14T07:46:46;100499.41;;;17.39;49.31
19114;BME280;9689;51.052;13.772;2023-06-14T07:51:48;100488.72;;;17.82;48.22
19114;BME280;9689;51.052;13.772;2023-06-14T07:56:52;100489.91;;;17.93;47.87
19114;BME280;9689;51.052;13.772;2023-06-14T08:01:52;100499.38;;;18.16;47.50
19114;BME280;9689;51.052;13.772;2023-06-14T08:06:53;100496.88;;;18.30;46.10
19114;BME280;9689;51.052;13.772;2023-06-14T08:11:55;100486.56;;;18.26;44.60
19114;BME280;9689;51.052;13.772;2023-06-14T08:16:56;100495.88;;;18.33;43.80
19114;BME280;9689;51.052;13.772;2023-06-14T08:21:57;100499.22;;;18.73;44.10
19114;BME280;9689;51.052;13.772;2023-06-14T08:27:05;100502.09;;;19.03;41.33
19114;BME280;9689;51.052;13.772;2023-06-14T08:32:06;100489.47;;;19.58;40.94
19114;BME280;9689;51.052;13.772;2023-06-14T08:37:07;100480.88;;;20.18;40.41
19114;BME280;9689;51.052;13.772;2023-06-14T08:42:09;100483.09;;;20.10;40.36
19114;BME280;9689;51.052;13.772;2023-06-14T08:47:26;100489.94;;;19.49;41.18
19114;BME280;9689;51.052;13.772;2023-06-14T08:52:30;100478.34;;;19.52;41.44
19114;BME280;9689;51.052;13.772;2023-06-14T08:57:36;100490.22;;;19.27;41.22
19114;BME280;9689;51.052;13.772;2023-06-14T09:02:38;100489.34;;;18.93;40.12
19114;BME280;9689;51.052;13.772;2023-06-14T09:07:43;100483.47;;;19.55;39.92
19114;BME280;9689;51.052;13.772;2023-06-14T09:12:45;100489.06;;;19.97;38.75
19114;BME280;9689;51.052;13.772;2023-06-14T09:17:47;100487.75;;;20.36;37.20
19114;BME280;9689;51.052;13.772;2023-06-14T09:22:48;100490.50;;;20.50;37.51
19114;BME280;9689;51.052;13.772;2023-06-14T09:27:51;100491.06;;;20.85;36.03
19114;BME280;9689;51.052;13.772;2023-06-14T09:32:52;100487.34;;;21.47;35.96
19114;BME280;9689;51.052;13.772;2023-06-14T09:37:54;100475.59;;;21.36;35.09
19114;BME280;9689;51.052;13.772;2023-06-14T09:42:57;100477.88;;;22.12;35.14
19114;BME280;9689;51.052;13.772;2023-06-14T09:47:59;100481.66;;;22.75;34.75
19114;BME280;9689;51.052;13.772;2023-06-14T09:53:07;100472.16;;;22.58;34.37
19114;BME280;9689;51.052;13.772;2023-06-14T09:58:12;100469.69;;;22.42;36.09
19114;BME280;9689;51.052;13.772;2023-06-14T10:03:21;100462.72;;;21.59;35.44
19114;BME280;9689;51.052;13.772;2023-06-14T10:08:25;100465.13;;;21.90;37.03
19114;BME280;9689;51.052;13.772;2023-06-14T10:13:31;100468.50;;;21.37;38.09
19114;BME280;9689;51.052;13.772;2023-06-14T10:18:38;100458.72;;;20.95;38.10
19114;BME280;9689;51.052;13.772;2023-06-14T10:23:42;100467.56;;;20.94;38.69
19114;BME280;9689;51.052;13.772;2023-06-14T10:28:56;100462.31;;;21.22;38.63
19114;BME280;9689;51.052;13.772;2023-06-14T10:33:57;100465.44;;;19.94;39.96
19114;BME280;9689;51.052;13.772;2023-06-14T10:39:04;100460.69;;;20.47;40.09
19114;BME280;9689;51.052;13.772;2023-06-14T10:44:34;100461.00;;;21.15;39.80
19114;BME280;9689;51.052;13.772;2023-06-14T10:49:40;100454.84;;;20.10;39.92
19114;BME280;9689;51.052;13.772;2023-06-14T10:55:01;100450.34;;;20.42;40.80
19114;BME280;9689;51.052;13.772;2023-06-14T11:00:06;100439.47;;;20.91;40.20
19114;BME280;9689;51.052;13.772;2023-06-14T11:05:14;100442.22;;;20.89;39.62
19114;BME280;9689;51.052;13.772;2023-06-14T11:10:26;100440.91;;;21.25;39.16
19114;BME280;9689;51.052;13.772;2023-06-14T11:15:35;100430.69;;;20.46;41.13
19114;BME280;9689;51.052;13.772;2023-06-14T11:20:37;100437.28;;;19.77;42.19
19114;BME280;9689;51.052;13.772;2023-06-14T11:25:38;100449.41;;;19.33;44.05
19114;BME280;9689;51.052;13.772;2023-06-14T11:30:39;100443.59;;;19.59;43.76
19114;BME280;9689;51.052;13.772;2023-06-14T11:35:41;100440.84;;;19.76;43.44
19114;BME280;9689;51.052;13.772;2023-06-14T11:40:42;100440.75;;;20.10;42.87
19114;BME280;9689;51.052;13.772;2023-06-14T11:45:47;100449.81;;;19.90;43.02
19114;BME280;9689;51.052;13.772;2023-06-14T11:51:05;100443.91;;;20.16;43.04
19114;BME280;9689;51.052;13.772;2023-06-14T11:56:06;100445.84;;;20.44;42.55
19114;BME280;9689;51.052;13.772;2023-06-14T12:01:08;100443.09;;;21.18;41.66
19114;BME280;9689;51.052;13.772;2023-06-14T12:06:09;100434.13;;;21.21;42.18
19114;BME280;9689;51.052;13.772;2023-06-14T12:11:11;100431.22;;;20.67;42.87
19114;BME280;9689;51.052;13.772;2023-06-14T12:16:14;100437.69;;;20.47;43.90
19114;BME280;9689;51.052;13.772;2023-06-14T12:21:15;100432.47;;;20.76;43.46
19114;BME280;9689;51.052;13.772;2023-06-14T12:26:17;100438.31;;;20.37;43.56
19114;BME280;9689;51.052;13.772;2023-06-14T12:31:19;100442.13;;;19.69;45.69
19114;BME280;9689;51.052;13.772;2023-06-14T12:36:20;100439.34;;;20.34;44.91
19114;BME280;9689;51.052;13.772;2023-06-14T12:41:21;100421.09;;;21.73;42.16
19114;BME280;9689;51.052;13.772;2023-06-14T12:46:23;100415.41;;;22.07;40.99
19114;BME280;9689;51.052;13.772;2023-06-14T12:51:25;100414.28;;;21.69;42.40
19114;BME280;9689;51.052;13.772;2023-06-14T12:56:25;100416.88;;;21.42;41.75
19114;BME280;9689;51.052;13.772;2023-06-14T13:01:28;100411.56;;;20.71;43.85
19114;BME280;9689;51.052;13.772;2023-06-14T13:06:28;100408.50;;;19.87;46.01
19114;BME280;9689;51.052;13.772;2023-06-14T13:11:30;100408.75;;;20.88;42.80
19114;BME280;9689;51.052;13.772;2023-06-14T13:16:32;100395.34;;;21.88;40.78
19114;BME280;9689;51.052;13.772;2023-06-14T13:21:35;100396.81;;;21.80;40.41
19114;BME280;9689;51.052;13.772;2023-06-14T13:26:36;100395.94;;;22.86;38.61
19114;BME280;9689;51.052;13.772;2023-06-14T13:31:38;100395.00;;;21.10;42.47
19114;BME280;9689;51.052;13.772;2023-06-14T13:36:39;100407.19;;;20.40;44.72
19114;BME280;9689;51.052;13.772;2023-06-14T13:41:40;100397.50;;;20.85;44.19
19114;BME280;9689;51.052;13.772;2023-06-14T13:46:42;100390.72;;;21.92;40.26
19114;BME280;9689;51.052;13.772;2023-06-14T13:51:43;100389.38;;;22.39;37.87
19114;BME280;9689;51.052;13.772;2023-06-14T13:56:44;100379.88;;;23.49;36.42
19114;BME280;9689;51.052;13.772;2023-06-14T14:01:46;100376.59;;;23.33;36.02
19114;BME280;9689;51.052;13.772;2023-06-14T14:06:47;100377.22;;;22.87;36.93
19114;BME280;9689;51.052;13.772;2023-06-14T14:11:48;100380.91;;;21.24;40.86
19114;BME280;9689;51.052;13.772;2023-06-14T14:16:50;100386.19;;;21.80;40.92
19114;BME280;9689;51.052;13.772;2023-06-14T14:21:52;100379.06;;;22.34;39.74
19114;BME280;9689;51.052;13.772;2023-06-14T14:26:53;100379.16;;;21.66;39.26
19114;BME280;9689;51.052;13.772;2023-06-14T14:31:56;100388.41;;;21.32;40.52
19114;BME280;9689;51.052;13.772;2023-06-14T14:36:57;100375.53;;;21.40;38.71
19114;BME280;9689;51.052;13.772;2023-06-14T14:41:58;100380.09;;;22.32;36.97
19114;BME280;9689;51.052;13.772;2023-06-14T14:47:00;100369.44;;;22.97;34.50
19114;BME280;9689;51.052;13.772;2023-06-14T14:52:01;100359.03;;;23.43;33.82
19114;BME280;9689;51.052;13.772;2023-06-14T14:57:21;100360.22;;;24.00;33.81
19114;BME280;9689;51.052;13.772;2023-06-14T15:02:23;100357.31;;;23.79;33.32
19114;BME280;9689;51.052;13.772;2023-06-14T15:07:24;100351.22;;;23.65;33.32
19114;BME280;9689;51.052;13.772;2023-06-14T15:12:25;100356.47;;;23.41;34.66
19114;BME280;9689;51.052;13.772;2023-06-14T15:17:30;100348.72;;;23.75;34.48
19114;BME280;9689;51.052;13.772;2023-06-14T15:22:31;100361.00;;;23.28;33.58
19114;BME280;9689;51.052;13.772;2023-06-14T15:27:32;100366.44;;;22.63;34.81
19114;BME280;9689;51.052;13.772;2023-06-14T15:32:34;100369.38;;;22.20;36.03
19114;BME280;9689;51.052;13.772;2023-06-14T15:37:35;100368.63;;;22.18;35.49
19114;BME280;9689;51.052;13.772;2023-06-14T15:42:35;100365.06;;;22.70;34.72
19114;BME280;9689;51.052;13.772;2023-06-14T15:47:38;100356.66;;;23.51;33.79
19114;BME280;9689;51.052;13.772;2023-06-14T15:52:39;100355.63;;;24.13;30.67
19114;BME280;9689;51.052;13.772;2023-06-14T15:57:39;100348.31;;;23.92;27.08
19114;BME280;9689;51.052;13.772;2023-06-14T16:02:41;100342.97;;;24.63;29.02
19114;BME280;9689;51.052;13.772;2023-06-14T16:07:42;100341.53;;;25.15;27.97
19114;BME280;9689;51.052;13.772;2023-06-14T16:12:43;100335.00;;;26.47;25.52
19114;BME280;9689;51.052;13.772;2023-06-14T16:17:45;100326.81;;;27.50;23.64
19114;BME280;9689;51.052;13.772;2023-06-14T16:22:46;100326.28;;;28.90;22.42
19114;BME280;9689;51.052;13.772;2023-06-14T16:27:47;100325.19;;;29.38;19.48
19114;BME280;9689;51.052;13.772;2023-06-14T16:32:49;100327.59;;;29.59;19.78
19114;BME280;9689;51.052;13.772;2023-06-14T16:37:51;100325.16;;;29.65;20.96
19114;BME280;9689;51.052;13.772;2023-06-14T16:42:52;100330.03;;;30.23;20.90
19114;BME280;9689;51.052;13.772;2023-06-14T16:47:54;100330.63;;;29.91;22.37
19114;BME280;9689;51.052;13.772;2023-06-14T16:52:55;100337.56;;;29.48;22.43
19114;BME280;9689;51.052;13.772;2023-06-14T16:57:56;100344.22;;;29.17;21.89
19114;BME280;9689;51.052;13.772;2023-06-14T17:02:58;100348.56;;;28.53;23.98
19114;BME280;9689;51.052;13.772;2023-06-14T17:08:00;100349.28;;;28.92;23.66
19114;BME280;9689;51.052;13.772;2023-06-14T17:13:01;100341.16;;;29.12;22.91
19114;BME280;9689;51.052;13.772;2023-06-14T17:18:03;100342.69;;;29.14;23.37
19114;BME280;9689;51.052;13.772;2023-06-14T17:23:04;100344.44;;;29.06;23.15
19114;BME280;9689;51.052;13.772;2023-06-14T17:28:04;100346.72;;;29.00;23.57
19114;BME280;9689;51.052;13.772;2023-06-14T17:33:09;100354.47;;;29.31;23.25
19114;BME280;9689;51.052;13.772;2023-06-14T17:38:14;100357.75;;;28.88;22.57
19114;BME280;9689;51.052;13.772;2023-06-14T17:43:15;100363.69;;;28.15;23.29
19114;BME280;9689;51.052;13.772;2023-06-14T17:48:18;100366.91;;;25.75;26.85
19114;BME280;9689;51.052;13.772;2023-06-14T17:53:19;100365.81;;;24.08;29.40
19114;BME280;9689;51.052;13.772;2023-06-14T17:58:19;100376.44;;;23.10;31.86
19114;BME280;9689;51.052;13.772;2023-06-14T18:03:22;100385.06;;;22.11;34.30
19114;BME280;9689;51.052;13.772;2023-06-14T18:08:23;100387.97;;;21.52;36.00
19114;BME280;9689;51.052;13.772;2023-06-14T18:13:25;100393.13;;;21.27;36.86
19114;BME280;9689;51.052;13.772;2023-06-14T18:18:27;100401.72;;;21.02;38.17
19114;BME280;9689;51.052;13.772;2023-06-14T18:23:28;100398.44;;;20.98;39.82
19114;BME280;9689;51.052;13.772;2023-06-14T18:28:28;100407.22;;;20.99;39.83
19114;BME280;9689;51.052;13.772;2023-06-14T18:33:31;100414.78;;;20.91;40.11
19114;BME280;9689;51.052;13.772;2023-06-14T18:38:32;100419.78;;;20.67;41.23
19114;BME280;9689;51.052;13.772;2023-06-14T18:43:32;100421.91;;;20.46;41.37
19114;BME280;9689;51.052;13.772;2023-06-14T18:48:34;100430.22;;;20.24;42.54
19114;BME280;9689;51.052;13.772;2023-06-14T18:53:35;100426.91;;;20.04;43.57
19114;BME280;9689;51.052;13.772;2023-06-14T18:58:36;100423.28;;;19.91;44.35
19114;BME280;9689;51.052;13.772;2023-06-14T19:03:38;100425.25;;;19.56;45.91
19114;BME280;9689;51.052;13.772;2023-06-14T19:08:40;100431.34;;;19.41;46.58
19114;BME280;9689;51.052;13.772;2023-06-14T19:13:41;100439.13;;;19.11;47.70
19114;BME280;9689;51.052;13.772;2023-06-14T19:18:43;100448.94;;;18.91;47.92
19114;BME280;9689;51.052;13.772;2023-06-14T19:23:44;100441.91;;;18.75;48.63
19114;BME280;9689;51.052;13.772;2023-06-14T19:28:44;100448.81;;;18.43;49.44
19114;BME280;9689;51.052;13.772;2023-06-14T19:33:46;100457.56;;;18.43;49.66
19114;BME280;9689;51.052;13.772;2023-06-14T19:38:50;100461.91;;;18.27;50.01
19114;BME280;9689;51.052;13.772;2023-06-14T19:43:50;100459.56;;;18.21;50.55
19114;BME280;9689;51.052;13.772;2023-06-14T19:48:52;100465.28;;;18.12;51.75
19114;BME280;9689;51.052;13.772;2023-06-14T19:53:53;100466.59;;;17.84;51.64
19114;BME280;9689;51.052;13.772;2023-06-14T19:58:54;100473.69;;;17.63;52.33
19114;BME280;9689;51.052;13.772;2023-06-14T20:03:56;100473.41;;;17.50;53.30
19114;BME280;9689;51.052;13.772;2023-06-14T20:08:57;100483.03;;;17.51;54.23
19114;BME280;9689;51.052;13.772;2023-06-14T20:13:58;100487.94;;;17.40;54.16
19114;BME280;9689;51.052;13.772;2023-06-14T20:19:01;100495.41;;;17.31;54.60
19114;BME280;9689;51.052;13.772;2023-06-14T20:24:01;100502.81;;;17.41;54.98
19114;BME280;9689;51.052;13.772;2023-06-14T20:29:02;100509.19;;;17.36;55.30
19114;BME280;9689;51.052;13.772;2023-06-14T20:34:04;100508.16;;;17.19;55.84
19114;BME280;9689;51.052;13.772;2023-06-14T20:39:05;100505.09;;;17.10;56.18
19114;BME280;9689;51.052;13.772;2023-06-14T20:44:06;100505.88;;;16.91;55.07
19114;BME280;9689;51.052;13.772;2023-06-14T20:49:10;100505.94;;;16.90;55.31
19114;BME280;9689;51.052;13.772;2023-06-14T20:54:10;100501.06;;;17.01;56.10
19114;BME280;9689;51.052;13.772;2023-06-14T20:59:11;100507.97;;;16.83;57.18
19114;BME280;9689;51.052;13.772;2023-06-14T21:04:13;100512.53;;;16.58;57.75
19114;BME280;9689;51.052;13.772;2023-06-14T21:09:14;100509.03;;;16.37;57.81
19114;BME280;9689;51.052;13.772;2023-06-14T21:14:15;100510.66;;;16.39;58.78
19114;BME280;9689;51.052;13.772;2023-06-14T21:19:17;100508.72;;;16.23;59.04
19114;BME280;9689;51.052;13.772;2023-06-14T21:24:17;100513.88;;;16.26;57.97
19114;BME280;9689;51.052;13.772;2023-06-14T21:29:18;100510.75;;;16.16;58.30
19114;BME280;9689;51.052;13.772;2023-06-14T21:34:20;100509.88;;;15.94;59.73
19114;BME280;9689;51.052;13.772;2023-06-14T21:39:21;100508.22;;;15.91;60.22
19114;BME280;9689;51.052;13.772;2023-06-14T21:44:21;100520.28;;;15.73;61.17
19114;BME280;9689;51.052;13.772;2023-06-14T21:49:23;100520.56;;;15.66;61.33
19114;BME280;9689;51.052;13.772;2023-06-14T21:54:24;100519.22;;;15.54;62.08
19114;BME280;9689;51.052;13.772;2023-06-14T21:59:25;100512.78;;;15.39;63.02
19114;BME280;9689;51.052;13.772;2023-06-14T22:04:27;100516.84;;;15.23;63.53
19114;BME280;9689;51.052;13.772;2023-06-14T22:09:27;100511.81;;;15.17;64.16
19114;BME280;9689;51.052;13.772;2023-06-14T22:14:28;100525.84;;;15.16;64.66
19114;BME280;9689;51.052;13.772;2023-06-14T22:19:31;100526.28;;;15.04;65.26
19114;BME280;9689;51.052;13.772;2023-06-14T22:24:32;100525.66;;;14.97;65.09
19114;BME280;9689;51.052;13.772;2023-06-14T22:29:33;100527.41;;;14.96;65.26
19114;BME280;9689;51.052;13.772;2023-06-14T22:34:35;100526.91;;;14.85;65.65
19114;BME280;9689;51.052;13.772;2023-06-14T22:39:38;100534.69;;;14.88;65.97
19114;BME280;9689;51.052;13.772;2023-06-14T22:44:39;100529.28;;;14.93;65.99
19114;BME280;9689;51.052;13.772;2023-06-14T22:49:41;100533.97;;;14.83;66.30
19114;BME280;9689;51.052;13.772;2023-06-14T22:54:47;100533.31;;;14.77;66.76
19114;BME280;9689;51.052;13.772;2023-06-14T22:59:48;100532.38;;;14.79;66.78
19114;BME280;9689;51.052;13.772;2023-06-14T23:04:51;100531.41;;;14.82;66.56
19114;BME280;9689;51.052;13.772;2023-06-14T23:09:53;100538.38;;;14.83;66.56
19114;BME280;9689;51.052;13.772;2023-06-14T23:14:55;100540.13;;;14.82;66.48
19114;BME280;9689;51.052;13.772;2023-06-14T23:19:59;100543.66;;;14.81;66.61
19114;BME280;9689;51.052;13.772;2023-06-14T23:25:08;100542.50;;;14.90;66.05
19114;BME280;9689;51.052;13.772;2023-06-14T23:30:09;100545.19;;;14.88;65.93
19114;BME280;9689;51.052;13.772;2023-06-14T23:35:11;100540.44;;;14.73;66.53
19114;BME280;9689;51.052;13.772;2023-06-14T23:40:13;100533.28;;;14.52;67.08
19114;BME280;9689;51.052;13.772;2023-06-14T23:45:14;100533.50;;;14.44;67.54
19114;BME280;9689;51.052;13.772;2023-06-14T23:50:18;100532.78;;;14.39;68.16
19114;BME280;9689;51.052;13.772;2023-06-14T23:55:19;100532.13;;;14.32;67.62
